Time;durP1;ratioP1;P1;durP2;ratioP2;P2;SDS_P1;SDS_P2;PMS_P1;PMS_P2;Temp;Humidity;BMP_temperature;BMP_pressure;BME280_temperature;BME280_humidity;BME280_pressure;Samples;Min_cycle;Max_cycle;Signal;HPM_P1;HPM_P2
2021/01/02 00:00:52;;;;;;;4.40;3.67;;;;;;;3.55;74.08;100297.93;1751766;80;22060;-69
2021/01/02 00:04:08;;;;;;;3.95;3.50;;;;;;;3.54;74.12;100300.16;1750340;82;21196;-69
2021/01/02 00:07:13;;;;;;;3.17;2.70;;;;;;;3.53;74.00;100306.78;1749708;80;21140;-69
2021/01/02 00:09:43;;;;;;;4.40;3.42;;;;;;;3.52;73.82;100315.53;1750887;82;21057;-68
2021/01/02 00:12:33;;;;;;;3.25;2.40;;;;;;;3.52;73.75;100324.67;1686186;80;21109;-68
2021/01/02 00:15:07;;;;;;;2.60;2.40;;;;;;;3.50;73.37;100327.37;1757960;81;22067;-68
2021/01/02 00:17:53;;;;;;;3.65;2.70;;;;;;;3.51;73.15;100328.21;1760358;81;21136;-68
2021/01/02 00:20:52;;;;;;;2.50;2.30;;;;;;;3.51;73.20;100331.67;1759653;81;21076;-68
2021/01/02 00:23:42;;;;;;;3.30;2.30;;;;;;;3.51;73.29;100335.58;1760204;81;21485;-68
2021/01/02 00:26:34;;;;;;;2.95;2.45;;;;;;;3.52;73.15;100341.19;1759289;81;21060;-68
2021/01/02 00:29:04;;;;;;;3.25;2.50;;;;;;;3.52;73.24;100337.27;1759951;80;22962;-69
2021/01/02 00:31:52;;;;;;;2.22;1.95;;;;;;;3.53;73.18;100348.55;1759628;80;21089;-68
2021/01/02 00:34:45;;;;;;;1.90;1.70;;;;;;;3.51;72.96;100346.49;1759624;81;21072;-68
2021/01/02 00:37:36;;;;;;;2.10;1.90;;;;;;;3.53;72.74;100349.86;1758629;81;21191;-68
2021/01/02 00:40:14;;;;;;;2.40;1.60;;;;;;;3.55;72.68;100349.31;1759511;81;21152;-69
2021/01/02 00:42:44;;;;;;;2.55;2.20;;;;;;;3.56;72.81;100353.16;1759683;81;22177;-69
2021/01/02 00:45:18;;;;;;;3.15;2.00;;;;;;;3.58;72.78;100358.33;1759643;81;21163;-69
2021/01/02 00:47:45;;;;;;;2.27;1.85;;;;;;;3.60;72.78;100366.45;1784580;80;26944;-69
2021/01/02 00:50:16;;;;;;;2.10;1.77;;;;;;;3.61;72.73;100377.75;1790807;80;21129;-68
2021/01/02 00:52:53;;;;;;;2.33;1.90;;;;;;;3.61;72.75;100378.59;1790927;78;21108;-68
2021/01/02 00:55:53;;;;;;;2.20;1.95;;;;;;;3.61;72.58;100378.59;1781638;80;22096;-68
2021/01/02 00:58:35;;;;;;;1.77;1.65;;;;;;;3.61;72.56;100384.27;1759336;81;21076;-68
2021/01/02 01:01:06;;;;;;;2.90;2.20;;;;;;;3.60;72.45;100383.89;1758773;80;21147;-68
2021/01/02 01:04:20;;;;;;;1.92;1.60;;;;;;;3.59;72.38;100388.73;1775067;80;21041;-68
2021/01/02 01:06:53;;;;;;;2.45;1.90;;;;;;;3.58;72.47;100390.97;1790605;80;21048;-68
2021/01/02 01:09:26;;;;;;;2.37;2.10;;;;;;;3.55;72.45;100392.41;1791144;80;21903;-68
2021/01/02 01:11:54;;;;;;;1.92;1.72;;;;;;;3.57;72.51;100394.47;1764854;80;21107;-68
2021/01/02 01:14:22;;;;;;;2.02;1.72;;;;;;;3.58;72.54;100402.26;1790681;80;21017;-68
2021/01/02 01:16:55;;;;;;;2.50;2.15;;;;;;;3.60;72.64;100396.95;1790853;79;21056;-68
2021/01/02 01:19:26;;;;;;;2.37;1.75;;;;;;;3.60;72.68;100408.70;1764673;80;22434;-68
2021/01/02 01:21:58;;;;;;;2.72;2.00;;;;;;;3.60;72.56;100404.33;1789716;80;22051;-68
2021/01/02 01:24:44;;;;;;;2.37;2.10;;;;;;;3.58;72.38;100408.78;1790846;80;21069;-68
2021/01/02 01:27:34;;;;;;;2.17;1.98;;;;;;;3.58;72.42;100415.31;1785462;80;21498;-69
2021/01/02 01:30:03;;;;;;;2.42;2.02;;;;;;;3.57;72.41;100416.67;1790761;78;21515;-69
2021/01/02 01:32:30;;;;;;;2.45;1.95;;;;;;;3.57;72.36;100416.67;1790834;78;21657;-68
2021/01/02 01:35:00;;;;;;;2.72;1.92;;;;;;;3.56;72.31;100422.36;1739642;80;22095;-68
2021/01/02 01:37:32;;;;;;;2.22;2.02;;;;;;;3.56;72.40;100426.27;1781732;80;21084;-68
2021/01/02 01:40:00;;;;;;;2.83;1.87;;;;;;;3.54;72.37;100418.98;1759732;81;21465;-68
2021/01/02 01:42:43;;;;;;;2.85;2.37;;;;;;;3.55;72.43;100418.52;1759591;81;21076;-68
2021/01/02 01:45:40;;;;;;;2.50;2.15;;;;;;;3.55;72.51;100425.05;1759651;81;21045;-69
2021/01/02 01:48:13;;;;;;;2.90;2.22;;;;;;;3.57;72.52;100425.81;1759648;80;21958;-69
2021/01/02 01:51:18;;;;;;;2.70;2.40;;;;;;;3.58;72.47;100436.67;1759843;81;21076;-68
2021/01/02 01:54:00;;;;;;;2.98;2.45;;;;;;;3.55;72.45;100437.64;1759772;80;21356;-69
2021/01/02 01:56:44;;;;;;;3.60;2.40;;;;;;;3.53;72.42;100437.34;1759724;81;21509;-69
2021/01/02 01:59:21;;;;;;;2.70;2.35;;;;;;;3.55;72.55;100451.16;1781812;80;22364;-68
2021/01/02 02:02:07;;;;;;;;;;;;;;;;;;;;;
2021/01/02 02:05:00;;;;;;;2.90;2.30;;;;;;;3.56;72.68;100458.92;1728358;82;21102;-70
2021/01/02 02:08:00;;;;;;;18.77;10.53;;;;;;;3.58;72.75;100462.79;1732567;82;21144;-70
2021/01/02 02:10:36;;;;;;;14.80;8.58;;;;;;;3.57;72.78;100467.17;1732522;82;21175;-70
2021/01/02 02:13:16;;;;;;;2.50;2.30;;;;;;;3.59;72.86;100470.55;1731523;82;21491;-68
2021/01/02 02:15:53;;;;;;;48.60;26.55;;;;;;;3.59;72.78;100474.46;1706113;82;23070;-68
2021/01/02 02:18:29;;;;;;;13.18;8.00;;;;;;;3.58;72.83;100483.22;1732423;82;21780;-68
2021/01/02 02:20:58;;;;;;;10.45;7.20;;;;;;;3.58;72.77;100484.98;1759879;81;21058;-69
2021/01/02 02:23:45;;;;;;;14.33;9.60;;;;;;;3.56;72.77;100485.50;1759829;81;21069;-68
2021/01/02 02:26:31;;;;;;;6.08;4.87;;;;;;;3.54;72.83;100486.88;1734820;81;21053;-69
2021/01/02 02:29:13;;;;;;;17.92;10.78;;;;;;;3.52;72.87;100492.64;1758833;81;22093;-69
2021/01/02 02:31:46;;;;;;;6.23;4.27;;;;;;;3.54;72.98;100493.41;1743756;81;21350;-68
2021/01/02 02:34:15;;;;;;;35.52;20.12;;;;;;;3.56;72.87;100493.33;1708115;82;21090;-69
2021/01/02 02:36:43;;;;;;;4.70;3.40;;;;;;;3.54;72.90;100497.33;1732486;82;21097;-69
2021/01/02 02:39:13;;;;;;;13.70;8.65;;;;;;;3.55;72.90;100503.39;1732537;82;21204;-68
2021/01/02 02:41:52;;;;;;;3.58;2.80;;;;;;;3.54;72.90;100507.77;1732511;82;22083;-68
2021/01/02 02:44:30;;;;;;;23.25;10.80;;;;;;;3.53;73.01;100511.31;1732488;82;21121;-68
2021/01/02 02:47:18;;;;;;;6.83;4.12;;;;;;;3.55;73.03;100514.69;1739357;82;21154;-68
2021/01/02 02:49:48;;;;;;;3.75;2.60;;;;;;;3.54;73.07;100520.83;1694703;84;21499;-69
2021/01/02 02:52:38;;;;;;;3.20;2.65;;;;;;;3.57;73.17;100523.75;1694708;84;21075;-69
2021/01/02 02:55:09;;;;;;;3.72;2.80;;;;;;;3.59;73.19;100536.30;1667299;84;22087;-68
2021/01/02 02:57:39;;;;;;;6.03;3.98;;;;;;;3.62;73.22;100537.45;1694563;84;21097;-69
2021/01/02 03:00:09;;;;;;;4.40;3.75;;;;;;;3.61;73.18;100537.06;1689368;84;21110;-68
2021/01/02 03:02:38;;;;;;;3.17;2.77;;;;;;;3.59;73.17;100544.13;1693860;83;22284;-68
2021/01/02 03:05:10;;;;;;;3.35;2.40;;;;;;;3.59;73.25;100540.22;1710606;83;21400;-68
2021/01/02 03:07:45;;;;;;;2.52;1.75;;;;;;;3.59;73.29;100544.13;1710708;83;22961;-68
2021/01/02 03:10:15;;;;;;;3.67;2.52;;;;;;;3.58;73.33;100548.97;1710480;82;21145;-68
2021/01/02 03:12:49;;;;;;;2.22;1.98;;;;;;;3.55;73.39;100548.64;1710583;83;21091;-68
2021/01/02 03:17:59;;;;;;;3.25;2.50;;;;;;;3.53;73.39;100541.34;1873536;75;29479;-69
2021/01/02 03:20:28;;;;;;;2.58;2.37;;;;;;;3.48;73.40;100555.09;1819324;77;21048;-69
2021/01/02 03:22:55;;;;;;;3.60;3.12;;;;;;;3.45;73.40;100556.06;1808448;78;22054;-70
2021/01/02 03:25:24;;;;;;;3.20;2.60;;;;;;;3.41;73.44;100557.13;1808410;79;21158;-69
2021/01/02 03:27:53;;;;;;;4.15;3.05;;;;;;;3.40;73.51;100562.44;1808462;78;21580;-70
2021/01/02 03:30:22;;;;;;;4.42;2.87;;;;;;;3.38;73.20;100566.42;1808438;79;21059;-69
2021/01/02 03:32:49;;;;;;;3.33;2.42;;;;;;;3.34;72.78;100574.00;1810937;78;21163;-70
2021/01/02 03:35:17;;;;;;;3.58;3.10;;;;;;;3.32;72.82;100569.31;1827397;78;22065;-69
2021/01/02 03:37:46;;;;;;;3.27;2.62;;;;;;;3.29;72.26;100567.31;1808060;79;21131;-69
2021/01/02 03:40:17;;;;;;;4.08;3.17;;;;;;;3.27;72.11;100570.42;1808446;79;21116;-69
2021/01/02 03:42:47;;;;;;;2.90;2.60;;;;;;;3.23;71.86;100571.50;1808450;79;21112;-69
2021/01/02 03:45:16;;;;;;;3.33;2.70;;;;;;;3.16;71.53;100570.92;1779455;79;21574;-68
2021/01/02 03:47:46;;;;;;;6.97;5.67;;;;;;;3.12;71.25;100573.30;1808461;79;22056;-68
2021/01/02 03:50:15;;;;;;;3.75;3.00;;;;;;;3.06;70.84;100577.48;1808426;78;21068;-68
2021/01/02 03:52:43;;;;;;;3.77;3.27;;;;;;;3.02;70.76;100576.78;1808313;79;21124;-68
2021/01/02 03:55:13;;;;;;;4.15;2.83;;;;;;;2.99;70.66;100581.27;1808172;79;21471;-68
2021/01/02 03:57:41;;;;;;;4.45;3.52;;;;;;;2.97;70.50;100585.25;1812235;78;21368;-69
2021/01/02 04:00:11;;;;;;;3.98;2.90;;;;;;;2.95;70.52;100587.55;1769715;78;22024;-69
2021/01/02 04:02:39;;;;;;;10.03;6.55;;;;;;;2.92;70.32;100596.83;1820000;77;21045;-69
2021/01/02 04:05:09;;;;;;;53.48;24.98;;;;;;;2.89;70.47;100604.31;1785634;80;21077;-69
2021/01/02 04:07:37;;;;;;;239.85;99.15;;;;;;;2.90;70.48;100602.58;1785631;80;21061;-69
2021/01/02 04:10:08;;;;;;;50.03;22.07;;;;;;;2.86;70.46;100605.30;1789064;79;21547;-69
2021/01/02 04:12:36;;;;;;;22.05;10.88;;;;;;;2.84;70.45;100617.57;1759491;81;22917;-69
2021/01/02 04:15:06;;;;;;;9.90;5.42;;;;;;;2.80;70.40;100615.18;1751052;82;21140;-69
2021/01/02 04:17:34;;;;;;;4.60;3.55;;;;;;;2.76;70.36;100620.97;1762554;80;21127;-69
2021/01/02 04:20:05;;;;;;;4.28;2.85;;;;;;;2.69;70.39;100626.05;1768132;80;21435;-69
2021/01/02 04:22:32;;;;;;;4.70;3.40;;;;;;;2.63;70.45;100622.88;1768176;81;21129;-69
2021/01/02 04:25:03;;;;;;;4.40;3.30;;;;;;;2.58;70.44;100634.78;1768061;80;21168;-68
2021/01/02 04:27:31;;;;;;;3.98;3.22;;;;;;;2.56;70.54;100643.14;1766705;80;21168;-68
2021/01/02 04:29:59;;;;;;;4.72;3.20;;;;;;;2.53;70.55;100648.03;1767512;81;21068;-68
2021/01/02 04:32:27;;;;;;;6.20;3.60;;;;;;;2.53;70.62;100647.19;1767455;81;21081;-69
2021/01/02 04:34:56;;;;;;;4.40;3.20;;;;;;;2.52;70.63;100660.68;1750771;81;21575;-68
2021/01/02 04:37:30;;;;;;;4.58;3.50;;;;;;;2.49;70.63;100659.94;1767490;81;21961;-68
2021/01/02 04:39:58;;;;;;;5.25;3.67;;;;;;;2.42;70.75;100659.37;1767511;81;22555;-68
2021/01/02 04:42:26;;;;;;;5.78;4.40;;;;;;;2.38;70.86;100664.30;1767509;81;21057;-68
2021/01/02 04:44:54;;;;;;;5.33;3.80;;;;;;;2.37;70.92;100669.58;1752714;81;21140;-68
2021/01/02 04:47:22;;;;;;;6.45;4.30;;;;;;;2.33;70.97;100668.02;1767244;81;21151;-68
2021/01/02 04:49:50;;;;;;;7.12;4.72;;;;;;;2.29;71.04;100678.55;1767541;81;22194;-68
2021/01/02 04:52:18;;;;;;;5.50;4.22;;;;;;;2.24;71.08;100677.05;1752297;80;21077;-68
2021/01/02 04:54:49;;;;;;;6.12;4.10;;;;;;;2.19;71.21;100687.65;1767471;80;21172;-68
2021/01/02 04:57:17;;;;;;;8.60;5.15;;;;;;;2.14;71.38;100688.75;1767443;81;21057;-68
2021/01/02 04:59:49;;;;;;;7.30;4.58;;;;;;;2.08;71.51;100692.44;1767528;81;21125;-68
2021/01/02 05:02:20;;;;;;;6.47;4.35;;;;;;;2.02;71.72;100696.58;1774180;80;21885;-68
2021/01/02 05:04:49;;;;;;;6.05;4.55;;;;;;;1.96;71.85;100700.74;1767394;80;21085;-68
2021/01/02 05:07:28;;;;;;;7.22;4.53;;;;;;;1.91;72.03;100710.47;1735213;82;21062;-68
2021/01/02 05:09:57;;;;;;;5.12;4.40;;;;;;;1.87;72.10;100716.27;1788649;80;21053;-68
2021/01/02 05:12:30;;;;;;;5.87;3.90;;;;;;;1.85;72.19;100718.54;1788655;80;21129;-68
2021/01/02 05:15:07;;;;;;;5.10;4.15;;;;;;;1.81;72.23;100721.70;1788751;80;22982;-68
2021/01/02 05:17:37;;;;;;;5.40;4.35;;;;;;;1.77;72.33;100736.20;1788493;79;21123;-68
2021/01/02 05:20:12;;;;;;;5.40;4.58;;;;;;;1.70;72.41;100735.12;1758496;80;21125;-68
2021/01/02 05:22:41;;;;;;;5.70;4.55;;;;;;;1.67;72.48;100731.34;1758357;80;21488;-70
2021/01/02 05:25:18;;;;;;;5.47;4.42;;;;;;;1.66;72.55;100740.06;1767543;81;21085;-68
2021/01/02 05:27:50;;;;;;;7.50;4.80;;;;;;;1.65;72.59;100743.57;1767541;80;22789;-69
2021/01/02 05:30:27;;;;;;;6.60;5.53;;;;;;;1.61;72.55;100751.08;1767500;81;21069;-69
2021/01/02 05:33:02;;;;;;;6.60;5.15;;;;;;;1.54;72.57;100757.86;1760288;81;21537;-68
2021/01/02 05:35:43;;;;;;;6.75;5.47;;;;;;;1.46;72.64;100768.56;1734611;82;21065;-68
2021/01/02 05:38:16;;;;;;;6.37;5.20;;;;;;;1.37;72.76;100767.59;1736532;81;21074;-68
2021/01/02 05:40:55;;;;;;;7.25;5.60;;;;;;;1.27;72.87;100772.27;1739986;82;22076;-68
2021/01/02 05:43:25;;;;;;;9.53;6.72;;;;;;;1.19;73.03;100774.73;1720888;82;21256;-68
2021/01/02 05:45:53;;;;;;;10.88;8.03;;;;;;;1.13;73.25;100777.92;1736706;82;21134;-68
2021/01/02 05:48:27;;;;;;;11.57;8.93;;;;;;;1.11;73.42;100777.59;1707548;82;21087;-68
2021/01/02 05:50:58;;;;;;;12.95;8.88;;;;;;;1.06;73.56;100785.56;1731238;81;21433;-68
2021/01/02 05:53:34;;;;;;;10.55;8.45;;;;;;;1.00;73.72;100791.41;1756721;80;22110;-68
2021/01/02 05:56:09;;;;;;;11.45;8.43;;;;;;;0.94;73.82;100793.75;1767498;81;21421;-68
2021/01/02 05:58:45;;;;;;;13.00;8.93;;;;;;;0.88;73.95;100795.72;1767472;81;21068;-68
2021/01/02 06:01:18;;;;;;;12.63;9.00;;;;;;;0.86;74.03;100804.85;1767398;81;21143;-69
2021/01/02 06:03:48;;;;;;;11.90;9.53;;;;;;;0.81;74.02;100809.37;1777912;79;21097;-69
2021/01/02 06:06:18;;;;;;;12.78;9.48;;;;;;;0.75;74.12;100823.85;1770834;80;22064;-68
2021/01/02 06:08:50;;;;;;;13.10;8.98;;;;;;;0.72;74.22;100826.11;1735163;82;21140;-68
2021/01/02 06:11:21;;;;;;;12.15;8.75;;;;;;;0.66;74.34;100822.84;1737003;82;21073;-69
2021/01/02 06:13:53;;;;;;;10.98;8.15;;;;;;;0.62;74.45;100829.89;1736730;82;21190;-68
2021/01/02 06:16:22;;;;;;;12.73;9.30;;;;;;;0.55;74.55;100831.83;1737091;82;21461;-70
2021/01/02 06:18:49;;;;;;;12.63;8.68;;;;;;;0.52;74.77;100834.53;1711226;83;22063;-70
2021/01/02 06:21:19;;;;;;;10.48;8.10;;;;;;;0.52;74.83;100834.98;1728556;83;21089;-70
2021/01/02 06:23:47;;;;;;;11.30;8.23;;;;;;;0.53;74.92;100842.72;1728686;82;21499;-68
2021/01/02 06:26:16;;;;;;;11.22;7.92;;;;;;;0.54;74.97;100847.02;1734426;81;21133;-68
2021/01/02 06:28:45;;;;;;;14.10;9.25;;;;;;;0.54;75.08;100851.38;1758797;81;21137;-68
2021/01/02 06:31:16;;;;;;;13.38;8.55;;;;;;;0.54;75.16;100857.87;1758758;81;21126;-68
2021/01/02 06:33:47;;;;;;;17.85;9.73;;;;;;;0.55;75.42;100857.81;1758793;81;21557;-68
2021/01/02 06:36:33;;;;;;;15.25;9.80;;;;;;;0.54;75.53;100865.22;1740292;81;21149;-68
2021/01/02 06:39:23;;;;;;;14.40;9.30;;;;;;;0.58;75.60;100867.30;1727067;83;21062;-69
2021/01/02 06:44:44;;;;;;;12.85;8.80;;;;;;;0.66;75.77;100864.44;1865788;75;29057;-69
2021/01/02 06:47:23;;;;;;;12.80;8.73;;;;;;;0.63;75.86;100870.59;1827227;78;21134;-69
2021/01/02 06:49:52;;;;;;;12.68;8.43;;;;;;;0.66;75.93;100882.18;1827290;78;22971;-69
2021/01/02 06:52:34;;;;;;;12.88;8.63;;;;;;;0.71;76.00;100892.45;1795703;78;21089;-69
2021/01/02 06:55:23;;;;;;;12.55;8.45;;;;;;;0.73;76.10;100894.10;1827163;78;21139;-69
2021/01/02 06:58:15;;;;;;;14.60;9.55;;;;;;;0.75;76.20;100891.45;1826642;78;21087;-69
2021/01/02 07:00:43;;;;;;;16.25;10.53;;;;;;;0.77;76.28;100889.65;1705940;84;21100;-69
2021/01/02 07:03:46;;;;;;;17.10;11.28;;;;;;;0.80;76.41;100896.92;1705964;84;22074;-69
2021/01/02 07:06:25;;;;;;;16.07;10.53;;;;;;;0.83;76.47;100892.92;1705898;84;21540;-69
2021/01/02 07:08:59;;;;;;;16.67;11.25;;;;;;;0.90;76.58;100901.84;1698903;84;21077;-69
2021/01/02 07:11:39;;;;;;;9.13;6.55;;;;;;;0.95;76.63;100906.44;1676040;85;21152;-68
2021/01/02 07:14:17;;;;;;;13.60;9.53;;;;;;;0.99;76.65;100908.91;1698920;84;21473;-70
2021/01/02 07:16:57;;;;;;;12.70;8.80;;;;;;;1.03;76.69;100918.76;1707335;82;21553;-70
2021/01/02 07:19:37;;;;;;;9.00;5.72;;;;;;;1.04;76.71;100916.55;1680129;85;21175;-70
2021/01/02 07:22:12;;;;;;;10.45;7.28;;;;;;;1.07;76.76;100925.13;1663447;84;21449;-70
2021/01/02 07:24:52;;;;;;;10.55;6.97;;;;;;;1.11;76.79;100920.22;1700846;84;21197;-70
2021/01/02 07:27:28;;;;;;;10.13;7.05;;;;;;;1.19;76.87;100928.24;1700982;83;21157;-70
2021/01/02 07:30:11;;;;;;;9.38;6.92;;;;;;;1.26;76.85;100929.76;1701312;84;22072;-68
2021/01/02 07:32:43;;;;;;;8.25;5.90;;;;;;;1.34;76.83;100929.03;1701385;84;21714;-69
2021/01/02 07:35:13;;;;;;;9.58;6.70;;;;;;;1.42;76.82;100933.09;1689243;84;21430;-69
2021/01/02 07:37:45;;;;;;;10.95;6.85;;;;;;;1.50;76.66;100936.75;1674079;85;21101;-69
2021/01/02 07:40:16;;;;;;;10.53;7.05;;;;;;;1.60;76.60;100938.14;1667542;86;21102;-70
2021/01/02 07:42:52;;;;;;;8.73;6.25;;;;;;;1.68;76.42;100943.10;1674041;85;22164;-70
2021/01/02 07:45:25;;;;;;;11.48;6.70;;;;;;;1.78;76.33;100951.00;1666793;86;21102;-70
2021/01/02 07:47:59;;;;;;;11.05;6.65;;;;;;;1.83;75.97;100946.47;1672632;85;21089;-69
2021/01/02 07:50:28;;;;;;;13.53;9.10;;;;;;;1.89;75.96;100955.39;1666056;86;21190;-68
2021/01/02 07:53:00;;;;;;;13.78;8.98;;;;;;;1.97;75.93;100962.49;1672699;85;21469;-69
2021/01/02 07:55:31;;;;;;;12.28;8.23;;;;;;;2.06;75.87;100963.08;1658299;86;22049;-69
2021/01/02 07:58:00;;;;;;;11.15;7.42;;;;;;;2.13;75.60;100971.94;1676230;85;21142;-69
2021/01/02 08:00:28;;;;;;;14.28;9.78;;;;;;;2.16;75.45;100970.52;1655282;85;21145;-69
2021/01/02 08:03:04;;;;;;;10.43;7.53;;;;;;;2.19;75.35;100975.61;1646606;85;21204;-68
2021/01/02 08:05:32;;;;;;;12.93;8.25;;;;;;;2.25;75.27;100971.95;1647263;85;21084;-69
2021/01/02 08:08:02;;;;;;;12.63;8.93;;;;;;;2.25;75.00;100964.98;1648039;85;22070;-70
2021/01/02 08:10:30;;;;;;;14.73;9.63;;;;;;;2.25;74.81;100972.80;1646179;87;21113;-70
2021/01/02 08:13:00;;;;;;;13.78;9.13;;;;;;;2.31;74.77;100973.02;1646325;87;21611;-70
2021/01/02 08:15:37;;;;;;;11.60;7.37;;;;;;;2.35;74.59;100969.42;1647700;85;21156;-70
2021/01/02 08:18:09;;;;;;;12.50;7.97;;;;;;;2.40;74.48;100974.45;1646547;87;21452;-69
2021/01/02 08:20:37;;;;;;;9.85;6.08;;;;;;;2.45;74.26;100975.16;1646983;85;22085;-69
2021/01/02 08:23:08;;;;;;;9.15;6.67;;;;;;;2.49;74.19;100976.73;1647233;85;21137;-67
2021/01/02 08:25:37;;;;;;;8.53;5.92;;;;;;;2.53;73.95;100980.48;1647562;86;21477;-68
2021/01/02 08:28:06;;;;;;;8.65;5.53;;;;;;;2.56;73.71;100974.30;1647590;87;21192;-69
2021/01/02 08:30:35;;;;;;;9.58;5.97;;;;;;;2.61;73.72;100980.21;1647775;85;21087;-68
2021/01/02 08:33:05;;;;;;;6.65;4.80;;;;;;;2.67;73.66;100976.52;1646356;87;24318;-70
2021/01/02 08:35:37;;;;;;;8.18;5.28;;;;;;;2.72;73.51;100974.14;1622264;87;21176;-69
2021/01/02 08:40:50;;;;;;;6.72;4.92;;;;;;;2.79;73.12;100979.95;1712623;82;21157;-69
2021/01/02 08:43:23;;;;;;;9.10;5.30;;;;;;;2.77;72.99;100985.69;1712728;82;21080;-66
2021/01/02 08:45:58;;;;;;;6.87;4.70;;;;;;;2.79;72.91;100971.67;1710336;82;21937;-66
2021/01/02 08:48:27;;;;;;;9.05;6.08;;;;;;;2.84;72.77;100975.43;1722355;82;22604;-67
2021/01/02 08:50:56;;;;;;;9.85;6.20;;;;;;;2.86;72.39;100973.61;1711945;83;21077;-67
2021/01/02 08:56:25;;;;;;;7.25;4.95;;;;;;;2.92;71.96;100979.91;1873438;75;29515;-68
2021/01/02 08:58:54;;;;;;;6.67;5.12;;;;;;;2.90;71.85;100982.19;1839838;78;21123;-67
2021/01/02 09:01:22;;;;;;;8.65;5.85;;;;;;;2.93;71.66;100982.06;1808509;79;22054;-68
2021/01/02 09:03:50;;;;;;;7.03;4.95;;;;;;;2.98;71.77;100986.17;1810420;78;21159;-70
2021/01/02 09:06:22;;;;;;;6.33;4.35;;;;;;;3.04;71.56;100992.48;1779471;78;21075;-69
2021/01/02 09:09:02;;;;;;;6.33;4.45;;;;;;;3.09;71.50;100994.47;1815031;78;21142;-69
2021/01/02 09:11:48;;;;;;;9.05;6.00;;;;;;;3.13;71.48;100993.89;1822758;78;21131;-69
2021/01/02 09:14:19;;;;;;;10.50;5.90;;;;;;;3.15;71.09;100991.61;1726996;82;21904;-69
2021/01/02 09:17:03;;;;;;;7.75;5.47;;;;;;;3.20;71.02;100995.36;1756606;81;22538;-68
2021/01/02 09:19:33;;;;;;;7.70;5.42;;;;;;;3.22;70.70;100992.23;1767079;80;21610;-68
2021/01/02 09:22:01;;;;;;;8.43;4.53;;;;;;;3.27;70.59;100988.97;1762018;80;21124;-68
2021/01/02 09:24:30;;;;;;;6.22;4.33;;;;;;;3.33;70.22;100991.80;1757939;80;21160;-70
2021/01/02 09:26:58;;;;;;;8.45;5.20;;;;;;;3.38;70.13;100998.55;1762705;80;21902;-68
2021/01/02 09:29:26;;;;;;;7.22;5.08;;;;;;;3.47;70.15;100995.16;1751167;80;21077;-75
2021/01/02 09:31:54;;;;;;;7.97;5.12;;;;;;;3.58;70.02;101002.13;1763078;80;20930;-75
2021/01/02 09:34:23;;;;;;;9.23;5.28;;;;;;;3.68;69.93;101004.30;1745274;80;21136;-73
2021/01/02 09:36:50;;;;;;;5.80;3.92;;;;;;;3.76;69.83;101002.66;1734760;82;21545;-72
2021/01/02 09:39:24;;;;;;;7.83;5.20;;;;;;;3.86;69.67;101004.44;1743963;82;22072;-71
2021/01/02 09:41:52;;;;;;;7.58;5.03;;;;;;;3.94;69.22;101005.81;1751220;82;21128;-73
2021/01/02 09:44:21;;;;;;;6.47;4.60;;;;;;;3.95;68.94;100997.06;1748390;82;21616;-72
2021/01/02 09:46:51;;;;;;;6.65;4.22;;;;;;;4.02;69.15;101001.12;1749414;82;21129;-73
2021/01/02 09:49:20;;;;;;;6.78;4.58;;;;;;;4.15;68.55;101008.44;1716489;82;21163;-74
2021/01/02 09:51:49;;;;;;;7.20;5.00;;;;;;;4.26;67.34;101010.16;1746761;81;22067;-73
2021/01/02 09:54:19;;;;;;;6.78;4.80;;;;;;;4.33;67.17;101009.41;1750798;80;22522;-71
2021/01/02 09:56:47;;;;;;;7.92;4.95;;;;;;;4.42;67.01;101012.94;1723038;82;21651;-70
2021/01/02 09:59:15;;;;;;;7.42;5.08;;;;;;;4.49;65.94;101015.23;1739445;82;21061;-72
2021/01/02 10:01:44;;;;;;;7.37;4.92;;;;;;;4.55;65.91;101016.73;1750802;82;21152;-70
2021/01/02 10:04:12;;;;;;;6.83;4.30;;;;;;;4.68;65.84;101015.72;1745422;82;21816;-69
2021/01/02 10:06:46;;;;;;;7.95;4.97;;;;;;;4.82;65.61;101016.78;1731738;81;21203;-70
2021/01/02 10:09:13;;;;;;;;;;;;;;;4.98;65.26;101018.72;1746204;82;21204;-71
2021/01/02 10:11:43;;;;;;;7.28;5.08;;;;;;;5.09;65.03;101012.05;1750517;82;20230;-71
2021/01/02 10:14:10;;;;;;;7.70;5.22;;;;;;;5.25;64.40;101016.59;1735903;81;21192;-72
2021/01/02 10:16:39;;;;;;;6.92;4.80;;;;;;;5.31;64.16;101009.30;1748930;80;22073;-71
2021/01/02 10:19:10;;;;;;;6.33;4.20;;;;;;;5.42;63.83;101006.17;1749534;80;21172;-73
2021/01/02 10:21:38;;;;;;;8.03;4.70;;;;;;;5.53;63.20;101007.81;1731743;82;21113;-75
2021/01/02 10:24:08;;;;;;;8.75;5.85;;;;;;;5.59;62.73;101006.18;1739957;82;21163;-72
2021/01/02 10:26:35;;;;;;;9.00;5.12;;;;;;;5.60;62.86;101005.75;1705428;82;21166;-72
2021/01/02 10:29:04;;;;;;;7.20;5.08;;;;;;;5.66;62.27;101011.52;1745074;80;21828;-73
2021/01/02 10:31:33;;;;;;;8.60;5.37;;;;;;;5.69;62.28;101012.70;1740074;81;21153;-73
2021/01/02 10:34:01;;;;;;;7.20;5.03;;;;;;;5.72;62.08;101015.16;1749344;80;21156;-75
2021/01/02 10:36:29;;;;;;;5.58;4.20;;;;;;;5.73;62.12;101010.30;1749699;80;21187;-74
2021/01/02 10:38:57;;;;;;;9.40;6.30;;;;;;;5.81;62.24;101014.33;1748113;80;21160;-71
2021/01/02 10:41:25;;;;;;;7.12;5.17;;;;;;;5.89;61.81;101016.95;1747958;82;22087;-72
2021/01/02 10:43:53;;;;;;;6.33;4.55;;;;;;;5.94;61.73;101021.98;1749347;82;21147;-72
2021/01/02 10:46:21;;;;;;;7.20;5.28;;;;;;;5.99;61.71;101013.45;1749902;81;21124;-72
2021/01/02 10:48:49;;;;;;;6.25;4.55;;;;;;;6.13;61.51;101019.30;1749556;82;21143;-70
2021/01/02 10:51:19;;;;;;;5.42;3.95;;;;;;;6.22;61.40;101022.77;1748183;82;21137;-75
2021/01/02 10:53:47;;;;;;;6.55;4.20;;;;;;;6.29;60.91;101025.47;1744637;81;22955;-72
2021/01/02 10:56:18;;;;;;;7.20;4.80;;;;;;;6.28;60.45;101023.78;1718375;82;21515;-72
2021/01/02 10:58:46;;;;;;;6.65;4.42;;;;;;;6.27;60.59;101020.30;1725027;82;21165;-76
2021/01/02 11:01:14;;;;;;;6.00;4.45;;;;;;;6.37;60.73;101020.68;1744422;80;21195;-73
2021/01/02 11:03:42;;;;;;;9.65;5.60;;;;;;;6.47;59.67;101035.02;1749036;82;21108;-73
2021/01/02 11:06:14;;;;;;;8.80;6.20;;;;;;;6.45;59.74;101033.37;1747460;82;22079;-74
2021/01/02 11:08:41;;;;;;;7.50;4.65;;;;;;;6.56;59.91;101032.35;1721655;82;21120;-75
2021/01/02 11:11:10;;;;;;;7.67;4.95;;;;;;;6.66;59.12;101034.91;1750048;81;21176;-71
2021/01/02 11:13:38;;;;;;;6.25;4.25;;;;;;;6.72;58.68;101035.03;1707002;82;21144;-75
2021/01/02 11:16:06;;;;;;;6.22;4.85;;;;;;;6.75;58.49;101033.55;1748430;82;21167;-75
2021/01/02 11:18:35;;;;;;;6.92;4.75;;;;;;;6.71;58.10;101026.77;1746493;81;21904;-76
2021/01/02 11:21:09;;;;;;;8.60;5.83;;;;;;;6.73;58.44;101030.16;1720277;83;21155;-76
2021/01/02 11:23:37;;;;;;;9.78;6.17;;;;;;;6.81;58.38;101033.23;1738511;82;21151;-76
2021/01/02 11:26:09;;;;;;;9.50;6.05;;;;;;;6.88;58.36;101029.36;1742672;80;21170;-72
2021/01/02 11:28:37;;;;;;;6.92;5.20;;;;;;;6.97;58.19;101039.38;1732344;82;21120;-76
2021/01/02 11:31:05;;;;;;;11.22;6.40;;;;;;;7.05;58.32;101040.28;1747223;82;22122;-75
2021/01/02 11:33:33;;;;;;;9.75;5.80;;;;;;;7.17;58.33;101044.39;1748543;81;21171;-75
2021/01/02 11:36:03;;;;;;;6.72;5.22;;;;;;;7.26;58.21;101055.34;1748732;80;21147;-74
2021/01/02 11:38:31;;;;;;;7.90;6.35;;;;;;;7.25;57.01;101049.70;1745030;82;21143;-74
2021/01/02 11:40:59;;;;;;;6.87;5.15;;;;;;;7.17;57.31;101059.31;1750074;81;21168;-74
2021/01/02 11:43:26;;;;;;;6.85;4.90;;;;;;;7.15;57.56;101053.30;1745455;82;22131;-74
2021/01/02 11:45:54;;;;;;;8.55;5.67;;;;;;;7.17;57.23;101055.37;1745042;81;21185;-74
2021/01/02 11:48:23;;;;;;;6.80;5.25;;;;;;;7.19;57.04;101058.75;1725217;82;21137;-75
2021/01/02 11:50:51;;;;;;;8.03;5.72;;;;;;;7.23;57.71;101062.89;1702817;82;21145;-74
2021/01/02 11:53:21;;;;;;;6.62;5.10;;;;;;;7.24;57.18;101069.88;1743831;81;21490;-72
2021/01/02 11:55:51;;;;;;;8.18;5.90;;;;;;;7.24;57.36;101072.94;1741493;81;21927;-72
2021/01/02 11:58:18;;;;;;;9.53;6.40;;;;;;;7.27;57.62;101070.17;1743081;81;21167;-70
2021/01/02 12:00:46;;;;;;;7.35;5.33;;;;;;;7.46;57.78;101066.44;1755609;80;21179;-74
2021/01/02 12:03:15;;;;;;;8.65;6.37;;;;;;;7.57;57.06;101061.05;1742603;81;21172;-74
2021/01/02 12:05:45;;;;;;;9.53;6.75;;;;;;;7.58;56.94;101077.20;1736226;81;21067;-76
2021/01/02 12:08:13;;;;;;;10.23;7.20;;;;;;;7.59;57.01;101072.33;1710299;81;21849;-75
2021/01/02 12:10:40;;;;;;;8.63;6.67;;;;;;;7.60;57.25;101071.38;1753893;80;21183;-75